createdAt,value
2019-04-26T00:00:50.499Z,8.10
2019-04-26T00:05:54.981Z,8.10
2019-04-26T00:11:06.873Z,8.20
2019-04-26T00:16:22.987Z,8.20
2019-04-26T00:21:28.415Z,8.00
2019-04-26T00:26:33.679Z,7.90
2019-04-26T00:31:39.041Z,7.80
2019-04-26T00:36:43.612Z,7.60
2019-04-26T00:41:48.654Z,7.40
2019-04-26T00:46:57.212Z,7.20
2019-04-26T00:52:03.373Z,7.00
2019-04-26T00:57:08.985Z,6.80
2019-04-26T01:02:19.163Z,6.40
2019-04-26T01:07:25.324Z,6.30
2019-04-26T01:12:30.677Z,6.20
2019-04-26T01:17:35.846Z,6.10
2019-04-26T01:22:44.116Z,6.00
2019-04-26T01:27:48.977Z,6.00
2019-04-26T01:32:54.023Z,5.90
2019-04-26T01:38:00.874Z,6.00
2019-04-26T01:43:15.823Z,6.10
2019-04-26T01:48:45.721Z,6.20
2019-04-26T01:53:52.966Z,6.30
2019-04-26T01:58:58.111Z,6.20
2019-04-26T02:04:05.998Z,6.20
2019-04-26T02:09:11.478Z,6.10
2019-04-26T02:14:16.501Z,6.00
2019-04-26T02:19:21.696Z,5.90
2019-04-26T02:24:38.535Z,5.90
2019-04-26T02:29:43.593Z,5.80
2019-04-26T02:34:49.019Z,5.70
2019-04-26T02:39:55.547Z,5.60
2019-04-26T02:45:30.921Z,5.60
2019-04-26T02:50:44.825Z,5.80
2019-04-26T02:56:12.505Z,6.00
2019-04-26T03:01:18.041Z,6.20
2019-04-26T03:06:23.617Z,6.40
2019-04-26T03:11:33.363Z,6.50
2019-04-26T03:17:00.177Z,6.60
2019-04-26T03:22:11.459Z,6.60
2019-04-26T03:27:24.851Z,6.50
2019-04-26T03:33:01.502Z,6.30
2019-04-26T03:38:40.110Z,6.10
2019-04-26T03:44:15.700Z,5.90
2019-04-26T03:49:59.044Z,5.90
2019-04-26T03:55:08.822Z,5.90
2019-04-26T04:00:43.415Z,6.10
2019-04-26T04:05:51.849Z,6.40
2019-04-26T04:11:02.043Z,6.70
2019-04-26T04:16:12.403Z,6.80
2019-04-26T04:21:34.117Z,6.90
2019-04-26T04:27:18.740Z,7.00
2019-04-26T04:32:42.466Z,7.10
2019-04-26T04:38:08.657Z,7.20
2019-04-26T04:43:23.703Z,7.40
2019-04-26T04:48:51.169Z,7.50
2019-04-26T04:54:20.774Z,7.60
2019-04-26T04:59:35.185Z,7.60
2019-04-26T05:05:23.046Z,7.80
2019-04-26T05:10:44.211Z,7.90
2019-04-26T05:16:20.156Z,8.10
2019-04-26T05:21:53.020Z,8.30
2019-04-26T05:27:26.634Z,8.30
2019-04-26T05:33:15.555Z,8.40
2019-04-26T05:39:00.437Z,8.30
2019-04-26T05:44:21.789Z,8.30
2019-04-26T05:50:24.734Z,8.20
2019-04-26T05:56:09.906Z,8.20
2019-04-26T06:02:05.581Z,8.10
2019-04-26T06:07:40.380Z,8.10
2019-04-26T06:13:00.844Z,8.10
2019-04-26T06:18:43.030Z,8.20
2019-04-26T06:24:29.171Z,8.30
2019-04-26T06:30:05.033Z,8.20
2019-04-26T06:35:23.324Z,8.40
2019-04-26T06:40:54.582Z,8.50
2019-04-26T06:46:30.302Z,8.50
2019-04-26T06:51:40.868Z,8.60
2019-04-26T06:57:20.666Z,8.60
2019-04-26T07:02:42.197Z,8.50
2019-04-26T07:08:41.122Z,8.40
2019-04-26T07:14:15.653Z,8.30
2019-04-26T07:19:58.540Z,8.20
2019-04-26T07:26:00.312Z,8.10
2019-04-26T07:31:14.857Z,7.70
2019-04-26T07:37:06.760Z,7.70
2019-04-26T07:42:54.772Z,7.70
2019-04-26T07:48:21.367Z,7.70
2019-04-26T07:54:22.395Z,7.80
2019-04-26T08:00:12.956Z,8.00
2019-04-26T08:05:32.455Z,8.30
2019-04-26T08:10:39.868Z,8.20
2019-04-26T08:16:06.768Z,8.30
2019-04-26T08:21:31.845Z,8.20
2019-04-26T08:26:38.918Z,8.10
2019-04-26T08:31:47.297Z,8.20
2019-04-26T08:37:03.229Z,8.50
2019-04-26T08:42:19.217Z,8.70
2019-04-26T08:47:50.858Z,8.80
2019-04-26T08:52:58.109Z,8.90
2019-04-26T08:58:09.232Z,8.80
2019-04-26T09:03:53.259Z,8.80
2019-04-26T09:09:01.402Z,8.60
2019-04-26T09:14:08.101Z,8.60
2019-04-26T09:19:13.053Z,8.60
2019-04-26T09:24:29.799Z,8.70
2019-04-26T09:30:08.391Z,8.80
2019-04-26T09:35:15.271Z,8.80
2019-04-26T09:40:22.574Z,8.80
2019-04-26T09:45:40.511Z,9.10
2019-04-26T09:50:49.853Z,9.40
2019-04-26T09:55:54.383Z,9.60
2019-04-26T10:00:59.196Z,9.40
2019-04-26T10:06:04.090Z,9.40
2019-04-26T10:11:10.927Z,9.30
2019-04-26T10:16:33.545Z,9.30
2019-04-26T10:21:39.555Z,9.40
2019-04-26T10:26:44.770Z,9.00
2019-04-26T10:31:51.711Z,9.00
2019-04-26T10:36:57.143Z,8.90
2019-04-26T10:42:02.133Z,9.10
2019-04-26T10:47:07.333Z,9.10
2019-04-26T10:52:49.580Z,8.90
2019-04-26T10:57:53.647Z,8.90
2019-04-26T11:03:00.147Z,9.20
2019-04-26T11:08:05.281Z,9.10
2019-04-26T11:13:10.946Z,9.40
2019-04-26T11:18:19.842Z,9.70
2019-04-26T11:23:22.683Z,10.40
2019-04-26T11:28:27.639Z,10.90
2019-04-26T11:33:44.262Z,11.70
2019-04-26T11:38:39.707Z,12.20
2019-04-26T11:43:44.486Z,12.60
2019-04-26T11:48:58.584Z,12.30
2019-04-26T11:53:55.564Z,11.90
2019-04-26T11:59:00.339Z,11.70
2019-04-26T12:04:36.944Z,11.40
2019-04-26T12:09:45.490Z,11.40
2019-04-26T12:14:51.128Z,11.70
2019-04-26T12:19:56.131Z,12.80
2019-04-26T12:25:03.440Z,12.90
2019-04-26T12:30:07.521Z,12.60
2019-04-26T12:35:12.677Z,12.70
2019-04-26T12:40:19.427Z,13.00
2019-04-26T12:46:01.617Z,12.80
2019-04-26T12:51:08.107Z,12.50
2019-04-26T12:56:13.859Z,11.80
2019-04-26T13:01:18.751Z,11.30
2019-04-26T13:06:27.813Z,11.30
2019-04-26T13:11:52.893Z,11.80
2019-04-26T13:17:06.022Z,11.80
2019-04-26T13:22:12.505Z,11.80
2019-04-26T13:27:18.159Z,11.90
2019-04-26T13:32:24.477Z,12.20
2019-04-26T13:37:32.140Z,12.50
2019-04-26T13:42:36.024Z,12.70
2019-04-26T13:47:56.344Z,12.10
2019-04-26T13:53:00.837Z,11.40
2019-04-26T13:58:20.504Z,10.50
2019-04-26T14:03:26.951Z,10.50
2019-04-26T14:08:29.252Z,10.50
2019-04-26T14:13:34.181Z,10.90
2019-04-26T14:18:40.720Z,11.40
2019-04-26T14:23:56.344Z,12.00
2019-04-26T14:29:01.736Z,12.40
2019-04-26T14:34:07.075Z,12.50
2019-04-26T14:39:14.923Z,12.80
2019-04-26T14:44:18.227Z,12.70
2019-04-26T14:49:24.741Z,13.10
2019-04-26T14:54:29.919Z,13.20
2019-04-26T15:00:04.856Z,12.50
2019-04-26T15:05:30.721Z,12.30
2019-04-26T15:10:43.497Z,12.30
2019-04-26T15:15:46.090Z,12.30
2019-04-26T15:20:53.098Z,12.20
2019-04-26T15:25:58.455Z,12.30
2019-04-26T15:31:03.494Z,12.30
2019-04-26T15:36:11.174Z,12.30
2019-04-26T15:41:34.114Z,12.30
2019-04-26T15:47:05.582Z,12.20
2019-04-26T15:52:10.016Z,12.10
2019-04-26T15:57:14.894Z,11.70
2019-04-26T16:02:23.067Z,11.60
2019-04-26T16:07:28.821Z,11.80
2019-04-26T16:12:32.686Z,11.80
2019-04-26T16:17:40.072Z,11.80
2019-04-26T16:22:44.165Z,11.50
2019-04-26T16:27:51.024Z,11.40
2019-04-26T16:33:04.971Z,11.30
2019-04-26T16:38:27.021Z,11.40
2019-04-26T16:43:37.789Z,11.20
2019-04-26T16:48:39.456Z,11.30
2019-04-26T16:54:02.510Z,11.20
2019-04-26T16:58:53.612Z,11.10
2019-04-26T17:03:57.795Z,11.10
2019-04-26T17:09:05.229Z,10.90
2019-04-26T17:14:11.155Z,11.00
2019-04-26T17:19:19.656Z,11.00
2019-04-26T17:24:46.840Z,10.90
2019-04-26T17:29:52.726Z,10.90
2019-04-26T17:34:59.716Z,10.80
2019-04-26T17:40:04.966Z,10.60
2019-04-26T17:45:10.893Z,10.40
2019-04-26T17:50:15.621Z,10.30
2019-04-26T17:55:20.306Z,10.20
2019-04-26T18:00:28.707Z,10.10
2019-04-26T18:05:45.004Z,10.00
2019-04-26T18:10:42.707Z,9.90
2019-04-26T18:15:48.495Z,9.80
2019-04-26T18:21:29.446Z,9.60
2019-04-26T18:27:16.787Z,9.50
2019-04-26T18:32:21.836Z,9.30
2019-04-26T18:37:26.565Z,9.10
2019-04-26T18:42:33.498Z,9.10
2019-04-26T18:47:45.046Z,9.00
2019-04-26T19:05:03.710Z,8.80
2019-04-26T19:10:21.604Z,8.70
2019-04-26T19:15:57.763Z,8.60
2019-04-26T19:22:09.540Z,8.60
2019-04-26T19:27:49.596Z,8.50
2019-04-26T19:33:03.086Z,8.50
2019-04-26T19:38:15.405Z,8.40
2019-04-26T19:43:31.086Z,8.40
2019-04-26T19:48:56.958Z,8.30
2019-04-26T19:54:31.324Z,8.30
2019-04-26T20:00:03.660Z,8.30
2019-04-26T20:05:44.778Z,8.30
2019-04-26T20:11:05.792Z,8.40
2019-04-26T20:16:22.625Z,8.40
2019-04-26T20:21:55.875Z,8.30
2019-04-26T20:27:15.649Z,8.30
2019-04-26T20:32:33.590Z,8.30
2019-04-26T20:37:42.508Z,8.20
2019-04-26T20:43:02.059Z,8.10
2019-04-26T20:50:14.719Z,8.10
2019-04-26T20:54:31.566Z,7.90
2019-04-26T21:00:22.409Z,7.90
2019-04-26T21:06:08.717Z,7.90
2019-04-26T21:11:21.793Z,7.90
2019-04-26T21:16:26.936Z,7.80
2019-04-26T21:21:32.084Z,7.80
2019-04-26T21:27:07.918Z,7.70
2019-04-26T21:32:26.194Z,7.60
2019-04-26T21:38:33.954Z,7.50
2019-04-26T21:44:20.463Z,7.50
2019-04-26T21:50:00.828Z,7.40
2019-04-26T21:55:35.230Z,7.20
2019-04-26T22:01:47.644Z,7.10
2019-04-26T22:13:53.958Z,7.00
2019-04-26T22:32:01.459Z,6.90
2019-04-26T22:37:29.173Z,6.90
2019-04-26T22:43:20.251Z,6.90
2019-04-26T22:49:04.983Z,6.90
2019-04-26T22:55:24.129Z,7.00
2019-04-26T23:06:58.666Z,7.00
2019-04-26T23:12:43.985Z,7.00
2019-04-26T23:18:27.402Z,7.00
2019-04-26T23:24:58.043Z,6.90
2019-04-26T23:30:31.713Z,6.90
2019-04-26T23:36:03.155Z,6.90
2019-04-26T23:41:10.737Z,6.80
2019-04-26T23:46:38.587Z,6.70
2019-04-26T23:52:06.391Z,6.50
2019-04-26T23:57:40.543Z,6.50
